Time;durP1;ratioP1;P1;durP2;ratioP2;P2;SDS_P1;SDS_P2;PMS_P1;PMS_P2;Temp;Humidity;BMP_temperature;BMP_pressure;BME280_temperature;BME280_humidity;BME280_pressure;Samples;Min_cycle;Max_cycle;Signal;HPM_P1;HPM_P2
2023/07/29 10:43:09;;;;;;;1.10;0.82;;;25.00;99.90;;;;;;4145440;28;20792;-67
2023/07/29 10:45:20;;;;;;;0.95;0.80;;;24.90;99.90;;;;;;4122646;28;20041;-68
2023/07/29 10:47:29;;;;;;;2.08;1.10;;;24.90;99.90;;;;;;4124640;28;20037;-68
2023/07/29 10:49:31;;;;;;;0.73;0.73;;;24.90;99.90;;;;;;4119849;28;20038;-68
2023/07/29 10:51:36;;;;;;;1.00;0.77;;;24.80;99.90;;;;;;4133699;28;20037;-69
2023/07/29 10:53:37;;;;;;;0.85;0.80;;;24.70;99.90;;;;;;4128653;28;20026;-67
2023/07/29 10:55:38;;;;;;;0.95;0.65;;;24.70;99.90;;;;;;4114785;28;20082;-67
2023/07/29 10:57:42;;;;;;;0.65;0.65;;;24.70;99.90;;;;;;4122828;28;20081;-68
2023/07/29 10:59:56;;;;;;;2.00;0.98;;;24.70;99.90;;;;;;4124647;28;20521;-67
2023/07/29 11:01:58;;;;;;;0.80;0.80;;;24.70;99.90;;;;;;4135196;28;20038;-67
2023/07/29 11:04:24;;;;;;;1.15;1.05;;;24.60;99.90;;;;;;4133283;28;20034;-68
2023/07/29 11:06:24;;;;;;;1.02;0.90;;;24.60;99.90;;;;;;4137700;28;20037;-67
2023/07/29 11:08:30;;;;;;;2.17;1.10;;;24.50;99.90;;;;;;4136182;28;20037;-67
2023/07/29 11:10:44;;;;;;;1.05;0.70;;;24.50;99.90;;;;;;4136837;28;20049;-68
2023/07/29 11:12:52;;;;;;;1.40;0.90;;;24.30;99.90;;;;;;4137918;28;20034;-68
2023/07/29 11:14:52;;;;;;;1.80;1.08;;;24.30;99.90;;;;;;4136393;28;20030;-67
2023/07/29 11:16:54;;;;;;;1.35;0.93;;;24.10;99.90;;;;;;4137459;28;20038;-68
2023/07/29 11:18:57;;;;;;;1.42;0.90;;;24.10;99.90;;;;;;4137620;28;20042;-68
2023/07/29 11:20:58;;;;;;;1.85;0.93;;;24.10;99.90;;;;;;4133130;28;20521;-69
2023/07/29 11:23:03;;;;;;;0.85;0.77;;;24.00;99.90;;;;;;4131004;28;20026;-68
2023/07/29 11:25:06;;;;;;;1.35;0.95;;;24.00;99.90;;;;;;4133548;28;20038;-69
2023/07/29 11:27:11;;;;;;;1.85;1.13;;;24.00;99.90;;;;;;4118169;28;20030;-68
2023/07/29 11:29:12;;;;;;;1.20;1.10;;;24.00;99.90;;;;;;4124269;28;20507;-68
2023/07/29 11:31:14;;;;;;;4.00;1.20;;;23.90;99.90;;;;;;4124129;28;20057;-68
2023/07/29 11:33:20;;;;;;;1.23;0.98;;;23.90;99.90;;;;;;4137124;28;20037;-67
2023/07/29 11:35:20;;;;;;;3.08;1.00;;;24.00;99.90;;;;;;4130156;28;20026;-68
2023/07/29 11:37:21;;;;;;;1.70;1.33;;;24.00;99.90;;;;;;4115843;28;20442;-67
2023/07/29 11:39:22;;;;;;;2.22;1.20;;;24.10;99.90;;;;;;4116685;28;20100;-66
2023/07/29 11:41:23;;;;;;;4.65;1.10;;;24.10;99.90;;;;;;4118294;28;20035;-68
2023/07/29 11:43:23;;;;;;;1.30;1.20;;;24.00;99.90;;;;;;4118722;28;20042;-68
2023/07/29 11:45:25;;;;;;;1.00;0.90;;;24.00;99.90;;;;;;4117701;28;20073;-68
2023/07/29 11:47:26;;;;;;;1.35;1.08;;;24.00;99.90;;;;;;4118443;28;20081;-68
2023/07/29 11:49:26;;;;;;;1.15;0.90;;;24.00;99.90;;;;;;4119963;28;20474;-68
2023/07/29 11:51:28;;;;;;;1.30;1.15;;;24.00;99.90;;;;;;4120117;28;20066;-68
2023/07/29 11:53:30;;;;;;;1.73;0.90;;;24.00;99.90;;;;;;4122119;28;20129;-69
2023/07/29 11:55:33;;;;;;;2.25;1.20;;;24.00;99.90;;;;;;4121693;28;20038;-69
2023/07/29 11:57:36;;;;;;;1.30;0.90;;;24.00;99.90;;;;;;4127418;28;20554;-68
2023/07/29 11:59:37;;;;;;;1.05;0.95;;;24.00;99.90;;;;;;4124279;28;20058;-68
2023/07/29 12:01:39;;;;;;;2.05;1.20;;;24.10;99.90;;;;;;4127341;28;20038;-68
2023/07/29 12:03:40;;;;;;;2.80;1.00;;;24.10;99.90;;;;;;4125373;28;20045;-68
2023/07/29 12:05:41;;;;;;;2.15;1.33;;;24.00;99.90;;;;;;4125588;28;20348;-68
2023/07/29 12:07:44;;;;;;;1.33;1.17;;;24.00;99.90;;;;;;4127159;28;20038;-68
2023/07/29 12:09:46;;;;;;;1.50;1.05;;;24.00;99.90;;;;;;4121287;28;20041;-68
2023/07/29 12:11:47;;;;;;;1.65;1.00;;;24.10;99.90;;;;;;4122410;28;20125;-68
2023/07/29 12:13:48;;;;;;;1.65;1.00;;;24.00;99.90;;;;;;4126937;28;20521;-68
2023/07/29 12:15:48;;;;;;;1.75;1.33;;;24.00;99.90;;;;;;4124082;28;20042;-68
2023/07/29 12:17:52;;;;;;;1.05;0.90;;;24.00;99.90;;;;;;4127278;28;20030;-68
2023/07/29 12:19:55;;;;;;;1.63;1.13;;;24.00;99.90;;;;;;4122923;28;20045;-68
2023/07/29 12:21:55;;;;;;;1.38;0.93;;;24.00;99.90;;;;;;4123651;28;20038;-68
2023/07/29 12:23:56;;;;;;;2.83;0.98;;;24.00;99.90;;;;;;4123272;28;20117;-68
2023/07/29 12:25:58;;;;;;;1.58;1.15;;;24.00;99.90;;;;;;4118539;28;20033;-68
2023/07/29 12:28:04;;;;;;;2.80;1.30;;;24.10;99.90;;;;;;4108083;28;20046;-68
2023/07/29 12:30:05;;;;;;;1.75;1.08;;;24.10;99.90;;;;;;4108852;28;20034;-69
2023/07/29 12:32:06;;;;;;;1.50;1.40;;;24.00;99.90;;;;;;4122186;28;20037;-68
2023/07/29 12:34:07;;;;;;;1.33;1.00;;;24.10;99.90;;;;;;4122386;28;20067;-68
2023/07/29 12:36:08;;;;;;;2.47;1.20;;;24.10;99.90;;;;;;4115760;28;20031;-69
2023/07/29 12:38:08;;;;;;;1.33;1.17;;;24.10;99.90;;;;;;4113937;28;20041;-68
2023/07/29 12:40:25;;;;;;;2.15;1.40;;;24.20;99.90;;;;;;4111860;28;20030;-68
2023/07/29 12:42:26;;;;;;;0.93;0.90;;;24.20;99.90;;;;;;4123222;28;20042;-68
2023/07/29 12:44:35;;;;;;;1.92;1.48;;;24.30;99.90;;;;;;4123905;28;20034;-68
2023/07/29 12:46:35;;;;;;;2.05;1.27;;;24.30;99.90;;;;;;4111167;28;20046;-70
2023/07/29 12:48:36;;;;;;;1.63;1.40;;;24.40;99.90;;;;;;4110976;28;20446;-69
2023/07/29 12:50:38;;;;;;;1.33;1.10;;;24.40;99.90;;;;;;4110959;28;20054;-68
2023/07/29 12:52:38;;;;;;;1.42;1.08;;;24.40;99.90;;;;;;4112222;28;20039;-69
2023/07/29 12:54:40;;;;;;;0.85;0.77;;;24.40;99.90;;;;;;4112887;28;20035;-69
2023/07/29 12:56:40;;;;;;;2.85;1.20;;;24.40;99.90;;;;;;4113840;28;20042;-68
2023/07/29 12:58:41;;;;;;;1.00;0.90;;;24.30;99.90;;;;;;4108056;28;20085;-69
2023/07/29 13:00:41;;;;;;;1.30;1.00;;;24.40;99.90;;;;;;4110107;28;20042;-63
2023/07/29 13:02:42;;;;;;;1.17;1.08;;;24.40;99.90;;;;;;4107878;28;20034;-63
2023/07/29 13:04:42;;;;;;;2.10;1.20;;;24.40;99.90;;;;;;4121059;28;20511;-63
2023/07/29 13:06:43;;;;;;;1.25;1.02;;;24.40;99.90;;;;;;4112647;28;20031;-63
2023/07/29 13:08:45;;;;;;;2.10;1.20;;;24.40;99.90;;;;;;4112058;28;20066;-70
2023/07/29 13:10:45;;;;;;;2.40;1.20;;;24.40;99.90;;;;;;4110383;28;20046;-68
2023/07/29 13:12:46;;;;;;;1.45;1.20;;;24.40;99.90;;;;;;4111653;28;20288;-68
2023/07/29 13:14:46;;;;;;;2.88;1.48;;;24.50;99.90;;;;;;4110422;28;20043;-68
2023/07/29 13:16:47;;;;;;;1.83;1.38;;;24.40;99.90;;;;;;4108458;28;20042;-68
2023/07/29 13:18:48;;;;;;;4.85;1.48;;;24.40;99.90;;;;;;4121442;28;20065;-66
2023/07/29 13:20:48;;;;;;;1.63;1.00;;;24.40;99.90;;;;;;4118856;28;20045;-77
2023/07/29 13:22:49;;;;;;;1.35;1.20;;;24.40;99.90;;;;;;4126710;28;20094;-74
2023/07/29 13:24:50;;;;;;;2.13;1.25;;;24.30;99.90;;;;;;4122260;28;20038;-79
2023/07/29 13:26:51;;;;;;;2.00;1.30;;;24.30;99.90;;;;;;4117706;28;20418;-81
2023/07/29 13:28:51;;;;;;;2.67;1.42;;;24.20;99.90;;;;;;4112878;28;20043;-85
2023/07/29 13:30:52;;;;;;;5.68;1.38;;;24.10;99.90;;;;;;4118015;28;20395;-86
2023/07/29 13:32:52;;;;;;;5.88;2.33;;;24.00;99.90;;;;;;4125814;28;20038;-88
2023/07/29 13:34:53;;;;;;;4.28;1.65;;;23.90;99.90;;;;;;4118941;28;20061;-85
2023/07/29 13:36:53;;;;;;;4.07;1.92;;;23.90;99.90;;;;;;4122724;28;20038;-86
2023/07/29 13:38:54;;;;;;;3.45;1.75;;;23.70;99.90;;;;;;4111012;28;20030;-86
2023/07/29 13:40:55;;;;;;;4.75;1.90;;;23.60;99.90;;;;;;4110776;28;20034;-79
2023/07/29 13:42:55;;;;;;;4.78;2.13;;;23.50;99.90;;;;;;4117202;28;20495;-79
2023/07/29 13:44:56;;;;;;;8.40;2.38;;;23.20;99.90;;;;;;4122177;28;20127;-75
2023/07/29 13:46:56;;;;;;;4.50;2.10;;;22.80;99.90;;;;;;4125913;28;20034;-73
2023/07/29 13:48:57;;;;;;;4.15;2.20;;;22.30;99.90;;;;;;4122942;28;20497;-76
2023/07/29 13:50:58;;;;;;;4.05;1.55;;;22.20;99.90;;;;;;4119192;28;20038;-78
2023/07/29 13:52:58;;;;;;;2.22;1.60;;;22.10;99.90;;;;;;4122779;28;20089;-80
2023/07/29 13:54:59;;;;;;;3.72;1.70;;;22.10;99.90;;;;;;4119464;28;20499;-78
2023/07/29 13:57:00;;;;;;;4.55;1.50;;;22.10;99.90;;;;;;4122093;28;20034;-77
2023/07/29 13:59:00;;;;;;;3.30;1.80;;;22.10;99.90;;;;;;4114081;28;20078;-78
2023/07/29 14:01:01;;;;;;;2.38;1.60;;;22.10;99.90;;;;;;4118678;28;20041;-76
2023/07/29 14:03:01;;;;;;;3.88;2.30;;;22.10;99.90;;;;;;4127294;28;20371;-76
2023/07/29 14:05:02;;;;;;;5.15;2.40;;;22.10;99.90;;;;;;4119262;28;20077;-76
2023/07/29 14:07:03;;;;;;;6.47;2.20;;;22.10;99.90;;;;;;4121684;28;20051;-75
2023/07/29 14:09:04;;;;;;;3.83;2.17;;;22.10;99.90;;;;;;4110879;28;20054;-76
2023/07/29 14:11:04;;;;;;;4.22;2.10;;;22.20;99.90;;;;;;4110041;28;20039;-76
2023/07/29 14:13:05;;;;;;;2.75;1.85;;;22.20;99.90;;;;;;4110518;28;20058;-76
2023/07/29 14:15:06;;;;;;;2.65;1.95;;;22.30;99.90;;;;;;4110279;28;20019;-78
2023/07/29 14:17:08;;;;;;;4.57;2.13;;;22.30;99.90;;;;;;4109027;28;20042;-78
2023/07/29 14:19:09;;;;;;;3.97;2.05;;;22.40;99.90;;;;;;4109306;28;20039;-78
2023/07/29 14:21:09;;;;;;;3.25;1.85;;;22.50;99.90;;;;;;4113630;28;20106;-79
2023/07/29 14:23:10;;;;;;;2.10;1.88;;;22.50;99.90;;;;;;4121739;28;20035;-79
2023/07/29 14:25:11;;;;;;;2.85;1.80;;;22.60;99.90;;;;;;4120169;28;20062;-80
2023/07/29 14:27:11;;;;;;;2.67;1.42;;;22.70;99.90;;;;;;4132669;28;20046;-78
2023/07/29 14:29:12;;;;;;;1.80;1.40;;;22.80;99.90;;;;;;4111145;28;20069;-67
2023/07/29 14:31:13;;;;;;;2.30;1.67;;;22.80;99.90;;;;;;4119251;28;20035;-67
2023/07/29 14:33:14;;;;;;;2.60;1.70;;;22.80;99.90;;;;;;4124810;28;20049;-67
2023/07/29 14:35:15;;;;;;;1.67;1.35;;;22.80;99.90;;;;;;4125304;28;20124;-67
2023/07/29 14:37:15;;;;;;;1.35;1.25;;;22.90;99.90;;;;;;4114173;28;20031;-67
2023/07/29 14:39:16;;;;;;;1.95;1.48;;;22.90;99.90;;;;;;4119115;28;20038;-67
2023/07/29 14:41:17;;;;;;;2.15;1.20;;;23.00;99.90;;;;;;4126993;28;20023;-67
2023/07/29 14:43:18;;;;;;;1.90;1.17;;;23.00;99.90;;;;;;4126942;28;20114;-67
2023/07/29 14:45:18;;;;;;;1.90;1.50;;;23.00;99.90;;;;;;4125613;28;20034;-67
2023/07/29 14:47:19;;;;;;;2.20;1.55;;;23.10;99.90;;;;;;4121794;28;20069;-67
2023/07/29 14:49:20;;;;;;;2.63;1.60;;;23.10;99.90;;;;;;4110543;28;20512;-67
2023/07/29 14:51:20;;;;;;;4.95;1.45;;;23.10;99.90;;;;;;4110750;28;20062;-67
2023/07/29 14:53:21;;;;;;;2.30;1.55;;;23.00;99.90;;;;;;4110748;28;20113;-67
2023/07/29 14:55:21;;;;;;;2.58;1.35;;;23.00;99.90;;;;;;4111871;28;20031;-66
2023/07/29 14:57:22;;;;;;;2.30;1.52;;;23.00;99.90;;;;;;4109270;28;20030;-67
2023/07/29 14:59:23;;;;;;;3.00;1.70;;;22.90;99.90;;;;;;4111117;28;20563;-66
2023/07/29 15:01:23;;;;;;;2.60;1.70;;;22.90;99.90;;;;;;4109394;28;20089;-66
2023/07/29 15:03:24;;;;;;;1.95;1.30;;;22.90;99.90;;;;;;4111269;28;20027;-66
2023/07/29 15:05:25;;;;;;;1.48;1.38;;;22.80;99.90;;;;;;4109934;28;20027;-66
2023/07/29 15:07:26;;;;;;;1.80;1.50;;;22.80;99.90;;;;;;4109364;28;20567;-66
2023/07/29 15:09:26;;;;;;;2.03;1.58;;;22.80;99.90;;;;;;4111344;28;20038;-67
2023/07/29 15:11:27;;;;;;;2.25;1.55;;;22.80;99.90;;;;;;4109258;28;20031;-67
2023/07/29 15:13:28;;;;;;;9.18;1.60;;;22.70;99.90;;;;;;4111201;28;20054;-66
2023/07/29 15:15:29;;;;;;;2.83;1.55;;;22.70;99.90;;;;;;4123423;28;20042;-66
2023/07/29 15:17:29;;;;;;;2.42;1.40;;;22.60;99.90;;;;;;4111231;28;20569;-67
2023/07/29 15:19:30;;;;;;;1.33;1.20;;;22.50;99.90;;;;;;4111904;28;20035;-77
2023/07/29 15:21:33;;;;;;;3.30;1.30;;;22.50;99.90;;;;;;4110460;28;20038;-77
2023/07/29 15:23:33;;;;;;;1.73;1.13;;;22.60;99.90;;;;;;4110119;28;20031;-77
2023/07/29 15:25:35;;;;;;;2.33;1.30;;;22.60;99.90;;;;;;4107895;28;20086;-78
2023/07/29 15:27:38;;;;;;;1.23;1.00;;;22.60;99.90;;;;;;4110048;28;20102;-77
2023/07/29 15:29:39;;;;;;;0.82;0.82;;;22.60;99.90;;;;;;4118615;28;20044;-78
2023/07/29 15:31:40;;;;;;;1.63;1.05;;;22.60;99.90;;;;;;4113777;28;20042;-75
2023/07/29 15:33:40;;;;;;;0.75;0.75;;;22.60;99.90;;;;;;4113802;28;20031;-77
2023/07/29 15:35:41;;;;;;;1.13;0.98;;;22.60;99.90;;;;;;4112343;28;20462;-77
2023/07/29 15:37:42;;;;;;;0.73;0.73;;;22.60;99.90;;;;;;4110668;28;20038;-77
2023/07/29 15:39:42;;;;;;;1.13;0.85;;;22.60;99.90;;;;;;4115153;28;20093;-62
2023/07/29 15:41:43;;;;;;;2.55;1.00;;;22.70;99.90;;;;;;4113237;28;20096;-62
2023/07/29 15:43:43;;;;;;;0.70;0.68;;;22.70;99.90;;;;;;4113622;28;20033;-62
2023/07/29 15:45:45;;;;;;;1.00;0.90;;;22.70;99.90;;;;;;4108028;28;20039;-62
2023/07/29 15:47:45;;;;;;;10.60;1.13;;;22.70;99.90;;;;;;4109365;28;20094;-62
2023/07/29 15:49:46;;;;;;;1.35;1.02;;;22.80;99.90;;;;;;4114210;28;20399;-66
2023/07/29 15:51:47;;;;;;;0.80;0.70;;;22.80;99.90;;;;;;4112232;28;20053;-66
2023/07/29 15:53:48;;;;;;;0.85;0.80;;;22.80;99.90;;;;;;4110798;28;21008;-66
2023/07/29 15:55:50;;;;;;;1.88;0.70;;;22.80;99.90;;;;;;4110336;28;20427;-66
2023/07/29 15:57:51;;;;;;;0.90;0.63;;;22.80;99.90;;;;;;4112547;28;20109;-66
2023/07/29 15:59:51;;;;;;;0.73;0.70;;;22.80;99.90;;;;;;4113751;28;20031;-66
2023/07/29 16:01:52;;;;;;;1.23;1.05;;;22.80;99.90;;;;;;4111512;28;20096;-66
2023/07/29 16:03:52;;;;;;;0.77;0.70;;;22.70;99.90;;;;;;4112841;28;20043;-66
2023/07/29 16:05:53;;;;;;;1.08;0.90;;;22.70;99.90;;;;;;4110529;28;20046;-66
2023/07/29 16:07:56;;;;;;;1.48;1.05;;;22.70;99.90;;;;;;4106749;28;20042;-66
2023/07/29 16:09:56;;;;;;;;;;;22.70;99.90;;;;;;4123283;28;20037;-66
2023/07/29 16:11:57;;;;;;;1.60;1.00;;;22.70;99.90;;;;;;4110814;28;19910;-65
2023/07/29 16:13:57;;;;;;;1.17;1.00;;;22.70;99.90;;;;;;4111037;28;20097;-65
2023/07/29 16:15:58;;;;;;;1.00;0.93;;;22.70;99.90;;;;;;4109246;28;20035;-65
2023/07/29 16:18:00;;;;;;;0.77;0.77;;;22.60;99.90;;;;;;4111144;28;20403;-65
2023/07/29 16:20:03;;;;;;;1.17;0.85;;;22.70;99.90;;;;;;4110926;28;20376;-65
2023/07/29 16:22:03;;;;;;;1.20;1.10;;;22.70;99.90;;;;;;4110925;28;20428;-66
2023/07/29 16:24:04;;;;;;;1.05;0.95;;;22.70;99.90;;;;;;4111615;28;20101;-66
2023/07/29 16:26:05;;;;;;;1.63;1.00;;;22.70;99.90;;;;;;4111512;28;20058;-66
2023/07/29 16:28:05;;;;;;;1.00;0.90;;;22.70;99.90;;;;;;4112140;28;20495;-65
2023/07/29 16:30:06;;;;;;;1.65;1.00;;;22.80;99.90;;;;;;4110748;28;20042;-73
2023/07/29 16:32:08;;;;;;;1.50;1.17;;;22.70;99.90;;;;;;4117775;28;20387;-74
2023/07/29 16:34:08;;;;;;;1.75;1.17;;;22.70;99.90;;;;;;4113575;28;20039;-74
2023/07/29 16:36:09;;;;;;;0.95;0.85;;;22.70;99.90;;;;;;4111357;28;20058;-73
2023/07/29 16:38:10;;;;;;;2.28;1.02;;;22.70;99.90;;;;;;4112736;28;20027;-74
2023/07/29 16:40:10;;;;;;;1.25;1.08;;;22.70;99.90;;;;;;4109115;28;20093;-74
2023/07/29 16:42:11;;;;;;;1.35;0.98;;;22.70;99.90;;;;;;4111549;28;20058;-75
2023/07/29 16:44:12;;;;;;;1.17;1.08;;;22.70;99.90;;;;;;4110994;28;20039;-75
2023/07/29 16:46:12;;;;;;;1.48;1.00;;;22.70;99.90;;;;;;4109032;28;20058;-75
2023/07/29 16:48:13;;;;;;;1.10;0.93;;;22.80;99.90;;;;;;4110974;28;20062;-76
2023/07/29 16:50:14;;;;;;;0.68;0.68;;;22.80;99.90;;;;;;4112852;28;20068;-76
2023/07/29 16:52:15;;;;;;;1.00;1.00;;;22.80;99.90;;;;;;4113052;28;20046;-76
2023/07/29 16:54:17;;;;;;;1.90;0.80;;;22.80;99.90;;;;;;4111683;28;20835;-76
2023/07/29 16:56:18;;;;;;;;;;;22.80;99.90;;;;;;4105939;28;20381;-77
2023/07/29 16:58:18;;;;;;;1.17;1.08;;;22.80;99.90;;;;;;4112967;28;19921;-77
2023/07/29 17:00:19;;;;;;;3.38;1.20;;;22.80;99.90;;;;;;4112348;28;21045;-67
2023/07/29 17:02:19;;;;;;;1.52;1.20;;;22.80;99.90;;;;;;4111741;28;20042;-66
2023/07/29 17:04:20;;;;;;;2.25;1.17;;;22.80;99.90;;;;;;4113090;28;20090;-67
2023/07/29 17:06:20;;;;;;;3.75;1.30;;;22.80;99.90;;;;;;4110148;28;20078;-67
2023/07/29 17:08:21;;;;;;;2.92;1.50;;;22.80;99.90;;;;;;4111201;28;20128;-67
2023/07/29 17:10:22;;;;;;;4.55;1.40;;;22.60;99.90;;;;;;4111747;28;20038;-67
2023/07/29 17:12:22;;;;;;;6.47;1.30;;;22.30;99.90;;;;;;4112449;28;20134;-67
2023/07/29 17:14:23;;;;;;;4.00;1.40;;;21.70;99.90;;;;;;4112751;28;20559;-67
2023/07/29 17:16:23;;;;;;;0.98;0.32;;;21.00;99.90;;;;;;4107870;28;20047;-67
2023/07/29 17:18:24;;;;;;;0.47;0.40;;;20.50;99.90;;;;;;4111691;28;20033;-67
2023/07/29 17:20:25;;;;;;;0.30;0.25;;;20.40;99.90;;;;;;4111586;28;20041;-67
2023/07/29 17:22:25;;;;;;;0.35;0.17;;;20.20;99.90;;;;;;4108805;28;20042;-67
2023/07/29 17:24:27;;;;;;;0.45;0.30;;;20.10;99.90;;;;;;4105740;28;20039;-67
2023/07/29 17:26:28;;;;;;;0.82;0.30;;;20.10;99.90;;;;;;4112250;28;20027;-67
2023/07/29 17:28:28;;;;;;;0.57;0.30;;;20.00;99.90;;;;;;4110843;28;20129;-67
2023/07/29 17:30:31;;;;;;;0.20;0.20;;;20.00;99.90;;;;;;4111697;28;20062;-67
2023/07/29 17:32:31;;;;;;;0.28;0.28;;;20.00;99.90;;;;;;4110412;28;20479;-67
2023/07/29 17:34:32;;;;;;;0.30;0.22;;;20.00;99.90;;;;;;4111713;28;20098;-67
2023/07/29 17:36:32;;;;;;;3.08;0.50;;;20.00;99.90;;;;;;4109701;28;20415;-67
2023/07/29 17:38:33;;;;;;;0.50;0.40;;;20.00;99.90;;;;;;4112673;28;20065;-67
2023/07/29 17:40:33;;;;;;;1.38;0.50;;;20.10;99.90;;;;;;4111728;28;20035;-77
2023/07/29 17:42:34;;;;;;;1.08;0.50;;;20.10;99.90;;;;;;4109935;28;20101;-76
2023/07/29 17:44:35;;;;;;;1.33;0.38;;;20.10;99.90;;;;;;4111949;28;20495;-76
2023/07/29 17:46:35;;;;;;;1.05;0.50;;;20.10;99.90;;;;;;4109693;28;20042;-76
2023/07/29 17:48:36;;;;;;;0.50;0.40;;;20.10;99.90;;;;;;4111069;28;20529;-76
2023/07/29 17:50:37;;;;;;;1.42;0.70;;;20.10;99.90;;;;;;4109004;28;20042;-76
2023/07/29 17:52:37;;;;;;;1.10;0.50;;;20.10;99.90;;;;;;4110305;28;20086;-76
2023/07/29 17:54:39;;;;;;;1.17;0.40;;;20.20;99.90;;;;;;4109761;28;20105;-76
2023/07/29 17:56:39;;;;;;;1.33;0.50;;;20.20;99.90;;;;;;4110238;28;20146;-76
2023/07/29 17:58:40;;;;;;;1.52;0.60;;;20.20;99.90;;;;;;4108706;28;20039;-76
2023/07/29 18:00:40;;;;;;;3.50;0.65;;;20.30;99.90;;;;;;4104930;28;20031;-77
2023/07/29 18:02:41;;;;;;;0.77;0.35;;;20.30;99.90;;;;;;4110585;28;20049;-76
2023/07/29 18:04:42;;;;;;;0.40;0.40;;;20.30;99.90;;;;;;4110600;28;20105;-74
2023/07/29 18:06:43;;;;;;;0.40;0.40;;;20.40;99.90;;;;;;4109887;28;20031;-74
2023/07/29 18:08:43;;;;;;;1.20;0.63;;;20.40;99.90;;;;;;4112031;28;20118;-69
2023/07/29 18:10:44;;;;;;;0.40;0.40;;;20.50;99.90;;;;;;4109959;28;20038;-71
2023/07/29 18:12:44;;;;;;;0.80;0.50;;;20.50;99.90;;;;;;4110193;28;20050;-73
2023/07/29 18:14:45;;;;;;;1.40;0.60;;;20.50;99.90;;;;;;4110770;28;20049;-73
2023/07/29 18:16:46;;;;;;;0.82;0.50;;;20.50;99.90;;;;;;4109225;28;20046;-73
2023/07/29 18:18:49;;;;;;;1.05;0.80;;;20.60;99.90;;;;;;4109864;28;20039;-66
2023/07/29 18:20:50;;;;;;;2.22;0.85;;;20.60;99.90;;;;;;4110965;28;20579;-68
2023/07/29 18:22:51;;;;;;;0.85;0.40;;;20.70;99.90;;;;;;4096974;28;20054;-68
2023/07/29 18:24:52;;;;;;;0.40;0.40;;;20.70;99.90;;;;;;4124570;28;20423;-68
2023/07/29 18:26:52;;;;;;;0.80;0.50;;;20.80;99.90;;;;;;4114441;28;20509;-68
2023/07/29 18:28:53;;;;;;;0.60;0.47;;;20.80;99.90;;;;;;4109290;28;20039;-61
2023/07/29 18:30:53;;;;;;;1.02;0.50;;;20.80;99.90;;;;;;4115255;28;20106;-60
2023/07/29 18:32:54;;;;;;;0.80;0.65;;;20.80;99.90;;;;;;4115681;28;20462;-60
2023/07/29 18:34:54;;;;;;;1.23;0.73;;;20.90;99.90;;;;;;4127522;28;20427;-60
2023/07/29 18:36:55;;;;;;;0.82;0.60;;;20.90;99.90;;;;;;4114821;28;20046;-60
2023/07/29 18:38:56;;;;;;;0.95;0.65;;;21.00;99.90;;;;;;4109409;28;20039;-59
2023/07/29 18:40:56;;;;;;;1.17;0.73;;;21.00;99.90;;;;;;4110256;28;20042;-60
2023/07/29 18:42:57;;;;;;;1.15;0.77;;;21.00;99.90;;;;;;4111197;28;20054;-60
2023/07/29 18:44:57;;;;;;;1.25;0.90;;;21.00;99.90;;;;;;4111764;28;20059;-60
2023/07/29 18:46:58;;;;;;;1.15;0.75;;;21.00;99.90;;;;;;4108569;28;20055;-59
2023/07/29 18:48:59;;;;;;;1.23;1.02;;;21.10;99.90;;;;;;4111343;28;20039;-73
2023/07/29 18:51:00;;;;;;;2.17;1.00;;;21.10;99.90;;;;;;4110956;28;20042;-69
2023/07/29 18:53:01;;;;;;;1.30;1.00;;;21.10;99.90;;;;;;4109770;28;20109;-68
2023/07/29 18:55:01;;;;;;;1.15;0.90;;;21.00;99.90;;;;;;4109569;28;20043;-68
2023/07/29 18:57:02;;;;;;;1.23;0.80;;;21.10;99.90;;;;;;4105266;28;20039;-68
2023/07/29 18:59:03;;;;;;;1.90;1.17;;;21.10;99.90;;;;;;4108872;28;20062;-68
2023/07/29 19:01:04;;;;;;;1.38;1.02;;;21.10;99.90;;;;;;4116235;28;20035;-67
2023/07/29 19:03:04;;;;;;;1.65;1.08;;;21.10;99.90;;;;;;4124667;28;20133;-68
2023/07/29 19:05:08;;;;;;;2.03;1.23;;;21.00;99.90;;;;;;4116709;28;20045;-68
2023/07/29 19:07:08;;;;;;;1.27;1.00;;;21.00;99.90;;;;;;4117339;28;20073;-68
2023/07/29 19:09:09;;;;;;;1.17;1.08;;;21.00;99.90;;;;;;4129971;28;20034;-68
2023/07/29 19:11:10;;;;;;;2.08;1.33;;;21.00;99.90;;;;;;4128577;28;20030;-68
2023/07/29 19:13:11;;;;;;;1.10;1.00;;;21.00;99.90;;;;;;4128453;28;20030;-68
2023/07/29 19:15:12;;;;;;;2.08;1.02;;;20.90;99.90;;;;;;4117645;28;20046;-69
2023/07/29 19:17:12;;;;;;;1.45;1.10;;;20.90;99.90;;;;;;4115271;28;20062;-69
2023/07/29 19:19:13;;;;;;;0.95;0.88;;;20.90;99.90;;;;;;4112187;28;20077;-68
2023/07/29 19:21:16;;;;;;;1.42;1.10;;;21.00;99.90;;;;;;4107190;28;20065;-68
2023/07/29 19:23:16;;;;;;;1.33;1.08;;;20.90;99.90;;;;;;4110693;28;20035;-67
2023/07/29 19:25:17;;;;;;;1.15;1.05;;;20.90;99.90;;;;;;4113039;28;20430;-68
2023/07/29 19:27:17;;;;;;;2.10;0.82;;;20.90;99.90;;;;;;4113453;28;20542;-68
2023/07/29 19:29:18;;;;;;;1.20;1.10;;;20.90;99.90;;;;;;4112306;28;20030;-68
2023/07/29 19:31:19;;;;;;;0.90;0.90;;;20.90;99.90;;;;;;4113235;28;20082;-68
2023/07/29 19:33:20;;;;;;;1.55;0.98;;;20.80;99.90;;;;;;4112913;28;20027;-67
2023/07/29 19:35:20;;;;;;;1.95;1.05;;;20.80;99.90;;;;;;4110810;28;20142;-67
2023/07/29 19:37:24;;;;;;;1.60;1.10;;;20.80;99.90;;;;;;4113172;28;20039;-67
2023/07/29 19:39:25;;;;;;;1.20;0.98;;;20.80;99.90;;;;;;4113248;28;20421;-64
2023/07/29 19:41:27;;;;;;;1.42;1.20;;;20.80;99.90;;;;;;4112567;28;20054;-64
2023/07/29 19:43:29;;;;;;;1.73;1.30;;;20.70;99.90;;;;;;4111054;28;20134;-64
2023/07/29 19:45:30;;;;;;;;;;;20.70;99.90;;;;;;4113197;28;20027;-64
2023/07/29 19:47:30;;;;;;;1.20;0.85;;;20.70;99.90;;;;;;4112602;28;20035;-65
2023/07/29 19:49:31;;;;;;;1.20;1.10;;;20.70;99.90;;;;;;4112413;28;20035;-65
2023/07/29 19:51:33;;;;;;;2.95;1.17;;;20.70;99.90;;;;;;4113625;28;20054;-64
2023/07/29 19:53:33;;;;;;;1.65;1.02;;;20.70;99.90;;;;;;4114145;28;20393;-64
2023/07/29 19:55:35;;;;;;;1.40;1.10;;;20.70;99.90;;;;;;4112588;28;20027;-65
2023/07/29 19:57:35;;;;;;;0.98;0.93;;;20.70;99.90;;;;;;4111206;28;20042;-65
2023/07/29 19:59:36;;;;;;;1.40;1.00;;;20.70;99.90;;;;;;4114028;28;20406;-78
2023/07/29 20:01:36;;;;;;;1.00;0.90;;;20.70;99.90;;;;;;4111730;28;20184;-78
2023/07/29 20:03:38;;;;;;;1.20;1.10;;;20.70;99.90;;;;;;4113699;28;20042;-77
2023/07/29 20:05:41;;;;;;;1.10;1.00;;;20.70;99.90;;;;;;4111339;28;20046;-77
2023/07/29 20:07:41;;;;;;;1.25;1.15;;;20.60;99.90;;;;;;4112745;28;20034;-77
2023/07/29 20:09:42;;;;;;;1.40;1.10;;;20.70;99.90;;;;;;4114093;28;20395;-77
2023/07/29 20:11:42;;;;;;;1.15;1.05;;;20.70;99.90;;;;;;4112416;28;20031;-76
2023/07/29 20:13:43;;;;;;;1.20;1.10;;;20.70;99.90;;;;;;4112976;28;20031;-77
2023/07/29 20:15:44;;;;;;;0.98;0.93;;;20.70;99.90;;;;;;4111916;28;20019;-76
2023/07/29 20:17:44;;;;;;;1.00;0.95;;;20.70;99.90;;;;;;4111328;28;20487;-76
2023/07/29 20:19:45;;;;;;;1.58;1.20;;;20.70;99.90;;;;;;4112782;28;20059;-77
2023/07/29 20:21:46;;;;;;;1.00;0.90;;;20.70;99.90;;;;;;4113038;28;20046;-76
2023/07/29 20:23:48;;;;;;;0.75;0.75;;;20.70;99.90;;;;;;4113737;28;20039;-77
2023/07/29 20:25:49;;;;;;;0.95;0.90;;;20.70;99.90;;;;;;4111593;28;20031;-75
2023/07/29 20:27:50;;;;;;;1.33;1.05;;;20.70;99.90;;;;;;4111356;28;20815;-76
2023/07/29 20:29:51;;;;;;;1.35;1.17;;;20.70;99.90;;;;;;4113216;28;20035;-76
2023/07/29 20:31:51;;;;;;;1.20;1.10;;;20.70;99.90;;;;;;4109597;28;20498;-76
2023/07/29 20:33:52;;;;;;;1.77;0.98;;;20.60;99.90;;;;;;4112525;28;20034;-76
2023/07/29 20:35:57;;;;;;;2.13;1.30;;;20.70;99.90;;;;;;4111111;28;20088;-77
2023/07/29 20:37:58;;;;;;;1.70;0.90;;;20.70;99.90;;;;;;4110768;28;20039;-76
2023/07/29 20:39:59;;;;;;;1.30;1.20;;;20.60;99.90;;;;;;4129581;28;20113;-76
2023/07/29 20:41:59;;;;;;;2.10;1.27;;;20.60;99.90;;;;;;4118951;28;20054;-76
2023/07/29 20:44:00;;;;;;;1.33;1.05;;;20.60;99.90;;;;;;4119298;28;20046;-76
2023/07/29 20:46:00;;;;;;;1.30;1.20;;;20.50;99.90;;;;;;4124234;28;20038;-73
2023/07/29 20:48:01;;;;;;;3.35;1.23;;;20.50;99.90;;;;;;4117921;28;20035;-75
2023/07/29 20:50:03;;;;;;;2.92;1.30;;;20.50;99.90;;;;;;4119368;28;20031;-61
2023/07/29 20:52:04;;;;;;;1.77;1.10;;;20.40;99.90;;;;;;4118311;28;20039;-61
2023/07/29 20:54:04;;;;;;;1.70;1.50;;;20.40;99.90;;;;;;4114111;28;20035;-61
2023/07/29 20:56:05;;;;;;;1.48;1.20;;;20.30;99.90;;;;;;4117283;28;20041;-61
2023/07/29 20:58:06;;;;;;;1.30;1.20;;;20.40;99.90;;;;;;4112487;28;20033;-62
2023/07/29 21:00:10;;;;;;;1.90;1.40;;;20.40;99.90;;;;;;4128081;28;20054;-67
2023/07/29 21:02:10;;;;;;;1.83;1.17;;;20.30;99.90;;;;;;4114163;28;20038;-66
2023/07/29 21:04:11;;;;;;;1.73;1.15;;;20.30;99.90;;;;;;4114002;28;20533;-66
2023/07/29 21:06:12;;;;;;;2.53;1.60;;;20.30;99.90;;;;;;4121886;28;20049;-66
2023/07/29 21:08:13;;;;;;;1.25;1.13;;;20.30;99.90;;;;;;4117615;28;20124;-65
2023/07/29 21:10:13;;;;;;;1.70;1.60;;;20.30;99.90;;;;;;4113696;28;20062;-70
2023/07/29 21:12:15;;;;;;;1.73;1.17;;;20.30;99.90;;;;;;4121250;28;20567;-73
2023/07/29 21:14:16;;;;;;;1.77;1.30;;;20.30;99.90;;;;;;4111659;28;20034;-74